sensor_id;sensor_type;location;lat;lon;timestamp;P1;durP1;ratioP1;P2;durP2;ratioP2
40453;SDS011;26160;51.858;4.398;2023-04-16T00:01:40;10.30;;;1.83;;
40453;SDS011;26160;51.858;4.398;2023-04-16T00:04:06;11.07;;;2.20;;
40453;SDS011;26160;51.858;4.398;2023-04-16T00:06:32;7.47;;;2.17;;
40453;SDS011;26160;51.858;4.398;2023-04-16T00:08:58;9.07;;;1.97;;
40453;SDS011;26160;51.858;4.398;2023-04-16T00:11:24;15.30;;;2.40;;
40453;SDS011;26160;51.858;4.398;2023-04-16T00:13:50;16.17;;;2.47;;
40453;SDS011;26160;51.858;4.398;2023-04-16T00:16:16;10.57;;;2.10;;
40453;SDS011;26160;51.858;4.398;2023-04-16T00:18:42;12.73;;;3.00;;
40453;SDS011;26160;51.858;4.398;2023-04-16T00:21:08;14.30;;;2.63;;
40453;SDS011;26160;51.858;4.398;2023-04-16T00:23:35;17.03;;;3.03;;
40453;SDS011;26160;51.858;4.398;2023-04-16T00:26:01;12.23;;;2.30;;
40453;SDS011;26160;51.858;4.398;2023-04-16T00:28:27;11.73;;;2.60;;
40453;SDS011;26160;51.858;4.398;2023-04-16T00:30:53;12.43;;;2.90;;
40453;SDS011;26160;51.858;4.398;2023-04-16T00:33:20;14.00;;;2.93;;
40453;SDS011;26160;51.858;4.398;2023-04-16T00:35:46;12.87;;;2.67;;
40453;SDS011;26160;51.858;4.398;2023-04-16T00:38:13;9.93;;;2.37;;
40453;SDS011;26160;51.858;4.398;2023-04-16T00:40:39;17.00;;;3.67;;
40453;SDS011;26160;51.858;4.398;2023-04-16T00:43:05;13.27;;;2.40;;
40453;SDS011;26160;51.858;4.398;2023-04-16T00:45:31;14.70;;;2.60;;
40453;SDS011;26160;51.858;4.398;2023-04-16T00:47:57;9.23;;;2.17;;
40453;SDS011;26160;51.858;4.398;2023-04-16T00:50:24;11.97;;;2.40;;
40453;SDS011;26160;51.858;4.398;2023-04-16T00:52:51;16.90;;;3.50;;
40453;SDS011;26160;51.858;4.398;2023-04-16T00:55:17;8.13;;;2.33;;
40453;SDS011;26160;51.858;4.398;2023-04-16T00:57:45;12.30;;;2.10;;
40453;SDS011;26160;51.858;4.398;2023-04-16T01:00:11;13.53;;;2.60;;
40453;SDS011;26160;51.858;4.398;2023-04-16T01:02:38;7.40;;;1.93;;
40453;SDS011;26160;51.858;4.398;2023-04-16T01:05:10;7.90;;;2.10;;
40453;SDS011;26160;51.858;4.398;2023-04-16T01:07:36;9.93;;;2.45;;
40453;SDS011;26160;51.858;4.398;2023-04-16T01:10:02;12.87;;;2.10;;
40453;SDS011;26160;51.858;4.398;2023-04-16T01:12:29;16.23;;;2.70;;
40453;SDS011;26160;51.858;4.398;2023-04-16T01:14:55;12.80;;;2.20;;
40453;SDS011;26160;51.858;4.398;2023-04-16T01:17:25;13.13;;;2.43;;
40453;SDS011;26160;51.858;4.398;2023-04-16T01:19:51;8.53;;;2.33;;
40453;SDS011;26160;51.858;4.398;2023-04-16T01:22:17;9.40;;;2.30;;
40453;SDS011;26160;51.858;4.398;2023-04-16T01:24:43;13.53;;;2.67;;
40453;SDS011;26160;51.858;4.398;2023-04-16T01:27:09;7.73;;;1.87;;
40453;SDS011;26160;51.858;4.398;2023-04-16T01:32:10;11.13;;;2.20;;
40453;SDS011;26160;51.858;4.398;2023-04-16T01:34:36;9.80;;;2.00;;
40453;SDS011;26160;51.858;4.398;2023-04-16T01:37:02;15.43;;;2.60;;
40453;SDS011;26160;51.858;4.398;2023-04-16T01:39:28;12.40;;;2.17;;
40453;SDS011;26160;51.858;4.398;2023-04-16T01:41:54;9.57;;;2.20;;
40453;SDS011;26160;51.858;4.398;2023-04-16T01:44:29;13.43;;;1.93;;
40453;SDS011;26160;51.858;4.398;2023-04-16T01:46:55;10.90;;;2.23;;
40453;SDS011;26160;51.858;4.398;2023-04-16T01:49:21;11.23;;;2.20;;
40453;SDS011;26160;51.858;4.398;2023-04-16T01:51:47;15.93;;;2.33;;
40453;SDS011;26160;51.858;4.398;2023-04-16T01:54:14;8.80;;;1.63;;
40453;SDS011;26160;51.858;4.398;2023-04-16T01:56:40;5.63;;;1.77;;
40453;SDS011;26160;51.858;4.398;2023-04-16T01:59:06;10.90;;;2.20;;
40453;SDS011;26160;51.858;4.398;2023-04-16T02:01:32;8.40;;;1.90;;
40453;SDS011;26160;51.858;4.398;2023-04-16T02:03:59;8.43;;;1.70;;
40453;SDS011;26160;51.858;4.398;2023-04-16T02:06:25;9.37;;;2.07;;
40453;SDS011;26160;51.858;4.398;2023-04-16T02:08:51;10.40;;;1.73;;
40453;SDS011;26160;51.858;4.398;2023-04-16T02:11:17;11.50;;;2.53;;
40453;SDS011;26160;51.858;4.398;2023-04-16T02:13:44;10.80;;;2.07;;
40453;SDS011;26160;51.858;4.398;2023-04-16T02:16:10;12.53;;;3.03;;
40453;SDS011;26160;51.858;4.398;2023-04-16T02:18:37;13.50;;;3.57;;
40453;SDS011;26160;51.858;4.398;2023-04-16T02:21:03;15.33;;;2.40;;
40453;SDS011;26160;51.858;4.398;2023-04-16T02:23:30;10.50;;;2.80;;
40453;SDS011;26160;51.858;4.398;2023-04-16T02:25:56;8.47;;;2.10;;
40453;SDS011;26160;51.858;4.398;2023-04-16T02:28:24;11.10;;;2.47;;
40453;SDS011;26160;51.858;4.398;2023-04-16T02:33:20;10.90;;;2.00;;
40453;SDS011;26160;51.858;4.398;2023-04-16T02:35:47;20.87;;;2.93;;
40453;SDS011;26160;51.858;4.398;2023-04-16T02:38:14;6.93;;;2.27;;
40453;SDS011;26160;51.858;4.398;2023-04-16T02:40:41;10.53;;;3.20;;
40453;SDS011;26160;51.858;4.398;2023-04-16T02:43:09;8.63;;;2.60;;
40453;SDS011;26160;51.858;4.398;2023-04-16T02:45:38;12.70;;;2.13;;
40453;SDS011;26160;51.858;4.398;2023-04-16T02:48:04;9.87;;;2.40;;
40453;SDS011;26160;51.858;4.398;2023-04-16T02:50:32;13.10;;;2.50;;
40453;SDS011;26160;51.858;4.398;2023-04-16T02:53:03;9.50;;;2.53;;
40453;SDS011;26160;51.858;4.398;2023-04-16T02:55:34;14.20;;;2.42;;
40453;SDS011;26160;51.858;4.398;2023-04-16T02:58:01;11.17;;;2.40;;
40453;SDS011;26160;51.858;4.398;2023-04-16T03:00:27;14.10;;;3.90;;
40453;SDS011;26160;51.858;4.398;2023-04-16T03:02:55;14.03;;;2.70;;
40453;SDS011;26160;51.858;4.398;2023-04-16T03:05:21;12.67;;;2.90;;
40453;SDS011;26160;51.858;4.398;2023-04-16T03:07:48;12.60;;;3.03;;
40453;SDS011;26160;51.858;4.398;2023-04-16T03:10:15;17.93;;;2.93;;
40453;SDS011;26160;51.858;4.398;2023-04-16T03:12:41;15.03;;;2.63;;
40453;SDS011;26160;51.858;4.398;2023-04-16T03:15:09;11.83;;;3.43;;
40453;SDS011;26160;51.858;4.398;2023-04-16T03:17:36;14.20;;;3.00;;
40453;SDS011;26160;51.858;4.398;2023-04-16T03:20:02;10.07;;;2.50;;
40453;SDS011;26160;51.858;4.398;2023-04-16T03:22:29;8.37;;;2.50;;
40453;SDS011;26160;51.858;4.398;2023-04-16T03:24:55;9.37;;;2.37;;
40453;SDS011;26160;51.858;4.398;2023-04-16T03:27:21;9.17;;;3.33;;
40453;SDS011;26160;51.858;4.398;2023-04-16T03:29:47;11.30;;;3.67;;
40453;SDS011;26160;51.858;4.398;2023-04-16T03:32:13;12.97;;;4.40;;
40453;SDS011;26160;51.858;4.398;2023-04-16T03:37:11;12.63;;;4.03;;
40453;SDS011;26160;51.858;4.398;2023-04-16T03:39:37;13.33;;;4.03;;
40453;SDS011;26160;51.858;4.398;2023-04-16T03:42:04;13.10;;;3.90;;
40453;SDS011;26160;51.858;4.398;2023-04-16T03:44:31;13.57;;;4.00;;
40453;SDS011;26160;51.858;4.398;2023-04-16T03:46:57;15.17;;;3.77;;
40453;SDS011;26160;51.858;4.398;2023-04-16T03:49:29;12.73;;;3.93;;
40453;SDS011;26160;51.858;4.398;2023-04-16T03:51:55;14.07;;;4.30;;
40453;SDS011;26160;51.858;4.398;2023-04-16T03:54:21;14.83;;;4.17;;
40453;SDS011;26160;51.858;4.398;2023-04-16T03:56:47;13.10;;;4.63;;
40453;SDS011;26160;51.858;4.398;2023-04-16T03:59:14;14.03;;;4.40;;
40453;SDS011;26160;51.858;4.398;2023-04-16T04:01:40;16.90;;;4.00;;
40453;SDS011;26160;51.858;4.398;2023-04-16T04:04:06;18.50;;;4.07;;
40453;SDS011;26160;51.858;4.398;2023-04-16T04:06:34;10.17;;;4.53;;
40453;SDS011;26160;51.858;4.398;2023-04-16T04:09:07;16.40;;;4.17;;
40453;SDS011;26160;51.858;4.398;2023-04-16T04:11:33;15.97;;;4.40;;
40453;SDS011;26160;51.858;4.398;2023-04-16T04:13:59;16.97;;;4.70;;
40453;SDS011;26160;51.858;4.398;2023-04-16T04:16:25;20.77;;;4.50;;
40453;SDS011;26160;51.858;4.398;2023-04-16T04:18:52;16.33;;;4.03;;
40453;SDS011;26160;51.858;4.398;2023-04-16T04:21:20;16.23;;;4.50;;
40453;SDS011;26160;51.858;4.398;2023-04-16T04:23:46;13.43;;;4.60;;
40453;SDS011;26160;51.858;4.398;2023-04-16T04:26:13;16.03;;;4.30;;
40453;SDS011;26160;51.858;4.398;2023-04-16T04:28:39;16.03;;;4.70;;
40453;SDS011;26160;51.858;4.398;2023-04-16T04:31:05;17.53;;;4.93;;
40453;SDS011;26160;51.858;4.398;2023-04-16T04:33:32;15.43;;;5.20;;
40453;SDS011;26160;51.858;4.398;2023-04-16T04:36:00;20.80;;;5.33;;
40453;SDS011;26160;51.858;4.398;2023-04-16T04:38:27;16.40;;;4.97;;
40453;SDS011;26160;51.858;4.398;2023-04-16T04:40:54;15.93;;;5.17;;
40453;SDS011;26160;51.858;4.398;2023-04-16T04:43:27;15.70;;;5.57;;
40453;SDS011;26160;51.858;4.398;2023-04-16T04:45:54;20.17;;;5.33;;
40453;SDS011;26160;51.858;4.398;2023-04-16T04:48:21;14.57;;;5.03;;
40453;SDS011;26160;51.858;4.398;2023-04-16T04:50:50;20.67;;;5.23;;
40453;SDS011;26160;51.858;4.398;2023-04-16T04:53:17;23.17;;;5.60;;
40453;SDS011;26160;51.858;4.398;2023-04-16T04:55:47;17.07;;;6.07;;
40453;SDS011;26160;51.858;4.398;2023-04-16T04:58:13;22.57;;;5.20;;
40453;SDS011;26160;51.858;4.398;2023-04-16T05:00:39;31.63;;;6.70;;
40453;SDS011;26160;51.858;4.398;2023-04-16T05:05:46;16.03;;;5.50;;
40453;SDS011;26160;51.858;4.398;2023-04-16T05:08:12;17.37;;;5.20;;
40453;SDS011;26160;51.858;4.398;2023-04-16T05:10:38;14.23;;;4.37;;
40453;SDS011;26160;51.858;4.398;2023-04-16T05:13:04;20.87;;;4.93;;
40453;SDS011;26160;51.858;4.398;2023-04-16T05:15:32;24.77;;;4.70;;
40453;SDS011;26160;51.858;4.398;2023-04-16T05:17:59;21.10;;;5.37;;
40453;SDS011;26160;51.858;4.398;2023-04-16T05:20:25;16.57;;;4.50;;
40453;SDS011;26160;51.858;4.398;2023-04-16T05:22:51;22.93;;;4.83;;
40453;SDS011;26160;51.858;4.398;2023-04-16T05:25:17;15.73;;;4.37;;
40453;SDS011;26160;51.858;4.398;2023-04-16T05:27:43;19.43;;;4.80;;
40453;SDS011;26160;51.858;4.398;2023-04-16T05:30:10;27.70;;;4.60;;
40453;SDS011;26160;51.858;4.398;2023-04-16T05:32:38;14.33;;;4.40;;
40453;SDS011;26160;51.858;4.398;2023-04-16T05:35:05;13.20;;;3.57;;
40453;SDS011;26160;51.858;4.398;2023-04-16T05:37:32;16.93;;;3.87;;
40453;SDS011;26160;51.858;4.398;2023-04-16T05:39:58;13.50;;;3.30;;
40453;SDS011;26160;51.858;4.398;2023-04-16T05:42:24;16.37;;;3.30;;
40453;SDS011;26160;51.858;4.398;2023-04-16T05:44:50;11.30;;;3.77;;
40453;SDS011;26160;51.858;4.398;2023-04-16T05:47:17;11.10;;;3.07;;
40453;SDS011;26160;51.858;4.398;2023-04-16T05:49:43;13.57;;;3.20;;
40453;SDS011;26160;51.858;4.398;2023-04-16T05:52:09;17.87;;;3.70;;
40453;SDS011;26160;51.858;4.398;2023-04-16T05:54:35;15.67;;;3.00;;
40453;SDS011;26160;51.858;4.398;2023-04-16T05:57:02;11.97;;;3.10;;
40453;SDS011;26160;51.858;4.398;2023-04-16T05:59:28;14.43;;;3.43;;
40453;SDS011;26160;51.858;4.398;2023-04-16T06:01:55;13.90;;;3.23;;
40453;SDS011;26160;51.858;4.398;2023-04-16T06:04:22;12.77;;;3.93;;
40453;SDS011;26160;51.858;4.398;2023-04-16T06:06:48;9.17;;;2.97;;
40453;SDS011;26160;51.858;4.398;2023-04-16T06:09:14;14.97;;;4.07;;
40453;SDS011;26160;51.858;4.398;2023-04-16T06:11:40;12.50;;;3.10;;
40453;SDS011;26160;51.858;4.398;2023-04-16T06:14:06;15.17;;;3.43;;
40453;SDS011;26160;51.858;4.398;2023-04-16T06:16:32;16.63;;;3.90;;
40453;SDS011;26160;51.858;4.398;2023-04-16T06:18:58;19.03;;;4.07;;
40453;SDS011;26160;51.858;4.398;2023-04-16T06:21:24;16.00;;;3.47;;
40453;SDS011;26160;51.858;4.398;2023-04-16T06:23:51;15.37;;;3.93;;
40453;SDS011;26160;51.858;4.398;2023-04-16T06:26:17;13.93;;;4.33;;
40453;SDS011;26160;51.858;4.398;2023-04-16T06:28:43;10.43;;;3.33;;
40453;SDS011;26160;51.858;4.398;2023-04-16T06:31:09;18.73;;;3.93;;
40453;SDS011;26160;51.858;4.398;2023-04-16T06:33:36;13.53;;;3.30;;
40453;SDS011;26160;51.858;4.398;2023-04-16T06:36:02;13.90;;;3.50;;
40453;SDS011;26160;51.858;4.398;2023-04-16T06:38:29;14.87;;;4.70;;
40453;SDS011;26160;51.858;4.398;2023-04-16T06:40:55;11.03;;;3.30;;
40453;SDS011;26160;51.858;4.398;2023-04-16T06:43:21;12.27;;;3.40;;
40453;SDS011;26160;51.858;4.398;2023-04-16T06:45:47;14.87;;;3.80;;
40453;SDS011;26160;51.858;4.398;2023-04-16T06:48:14;14.63;;;3.80;;
40453;SDS011;26160;51.858;4.398;2023-04-16T06:50:40;15.27;;;4.07;;
40453;SDS011;26160;51.858;4.398;2023-04-16T06:53:06;11.43;;;3.27;;
40453;SDS011;26160;51.858;4.398;2023-04-16T06:55:32;12.13;;;3.80;;
40453;SDS011;26160;51.858;4.398;2023-04-16T06:57:58;16.97;;;3.53;;
40453;SDS011;26160;51.858;4.398;2023-04-16T07:00:24;10.17;;;3.17;;
40453;SDS011;26160;51.858;4.398;2023-04-16T07:02:50;10.17;;;3.00;;
40453;SDS011;26160;51.858;4.398;2023-04-16T07:05:17;15.93;;;4.20;;
40453;SDS011;26160;51.858;4.398;2023-04-16T07:07:43;12.07;;;2.90;;
40453;SDS011;26160;51.858;4.398;2023-04-16T07:10:09;11.37;;;2.80;;
40453;SDS011;26160;51.858;4.398;2023-04-16T07:12:35;15.13;;;3.03;;
40453;SDS011;26160;51.858;4.398;2023-04-16T07:15:01;12.63;;;2.90;;
40453;SDS011;26160;51.858;4.398;2023-04-16T07:17:27;17.73;;;3.40;;
40453;SDS011;26160;51.858;4.398;2023-04-16T07:19:54;9.00;;;2.97;;
40453;SDS011;26160;51.858;4.398;2023-04-16T07:22:20;6.23;;;2.90;;
40453;SDS011;26160;51.858;4.398;2023-04-16T07:24:46;8.13;;;3.03;;
40453;SDS011;26160;51.858;4.398;2023-04-16T07:27:12;10.37;;;3.47;;
40453;SDS011;26160;51.858;4.398;2023-04-16T07:29:38;11.07;;;3.47;;
40453;SDS011;26160;51.858;4.398;2023-04-16T07:32:04;8.67;;;3.30;;
40453;SDS011;26160;51.858;4.398;2023-04-16T07:34:30;12.57;;;3.53;;
40453;SDS011;26160;51.858;4.398;2023-04-16T07:36:56;9.77;;;2.70;;
40453;SDS011;26160;51.858;4.398;2023-04-16T07:39:22;11.23;;;2.63;;
40453;SDS011;26160;51.858;4.398;2023-04-16T07:41:52;10.43;;;3.25;;
40453;SDS011;26160;51.858;4.398;2023-04-16T07:44:18;8.47;;;3.67;;
40453;SDS011;26160;51.858;4.398;2023-04-16T07:46:44;7.80;;;3.23;;
40453;SDS011;26160;51.858;4.398;2023-04-16T07:49:10;11.17;;;3.47;;
40453;SDS011;26160;51.858;4.398;2023-04-16T07:51:36;8.13;;;3.67;;
40453;SDS011;26160;51.858;4.398;2023-04-16T07:54:02;8.43;;;3.37;;
40453;SDS011;26160;51.858;4.398;2023-04-16T07:56:28;9.67;;;3.10;;
40453;SDS011;26160;51.858;4.398;2023-04-16T07:58:54;9.67;;;3.70;;
40453;SDS011;26160;51.858;4.398;2023-04-16T08:01:20;7.83;;;3.57;;
40453;SDS011;26160;51.858;4.398;2023-04-16T08:03:46;7.90;;;2.50;;
40453;SDS011;26160;51.858;4.398;2023-04-16T08:06:12;8.70;;;2.53;;
40453;SDS011;26160;51.858;4.398;2023-04-16T08:08:38;8.87;;;3.07;;
40453;SDS011;26160;51.858;4.398;2023-04-16T08:11:05;7.37;;;2.77;;
40453;SDS011;26160;51.858;4.398;2023-04-16T08:13:31;5.97;;;2.58;;
40453;SDS011;26160;51.858;4.398;2023-04-16T08:15:57;9.02;;;2.97;;
40453;SDS011;26160;51.858;4.398;2023-04-16T08:18:23;9.63;;;2.90;;
40453;SDS011;26160;51.858;4.398;2023-04-16T08:20:49;13.40;;;4.87;;
40453;SDS011;26160;51.858;4.398;2023-04-16T08:23:16;10.60;;;3.20;;
40453;SDS011;26160;51.858;4.398;2023-04-16T08:25:42;10.70;;;3.55;;
40453;SDS011;26160;51.858;4.398;2023-04-16T08:28:08;6.80;;;3.13;;
40453;SDS011;26160;51.858;4.398;2023-04-16T08:30:34;6.97;;;2.83;;
40453;SDS011;26160;51.858;4.398;2023-04-16T08:33:00;9.57;;;3.13;;
40453;SDS011;26160;51.858;4.398;2023-04-16T08:35:26;6.97;;;3.43;;
40453;SDS011;26160;51.858;4.398;2023-04-16T08:37:52;7.30;;;3.20;;
40453;SDS011;26160;51.858;4.398;2023-04-16T08:40:18;8.90;;;3.60;;
40453;SDS011;26160;51.858;4.398;2023-04-16T08:42:50;8.32;;;3.45;;
40453;SDS011;26160;51.858;4.398;2023-04-16T08:45:18;8.93;;;3.30;;
40453;SDS011;26160;51.858;4.398;2023-04-16T08:47:45;11.48;;;3.58;;
40453;SDS011;26160;51.858;4.398;2023-04-16T08:50:15;10.13;;;3.67;;
40453;SDS011;26160;51.858;4.398;2023-04-16T08:52:50;21.25;;;3.95;;
40453;SDS011;26160;51.858;4.398;2023-04-16T08:55:46;29.63;;;4.97;;
40453;SDS011;26160;51.858;4.398;2023-04-16T08:58:22;15.43;;;4.13;;
40453;SDS011;26160;51.858;4.398;2023-04-16T09:00:56;12.02;;;3.97;;
40453;SDS011;26160;51.858;4.398;2023-04-16T09:03:22;12.75;;;3.95;;
40453;SDS011;26160;51.858;4.398;2023-04-16T09:05:48;15.80;;;4.45;;
40453;SDS011;26160;51.858;4.398;2023-04-16T09:08:15;8.55;;;3.58;;
40453;SDS011;26160;51.858;4.398;2023-04-16T09:10:42;12.80;;;3.60;;
40453;SDS011;26160;51.858;4.398;2023-04-16T09:13:09;13.63;;;3.50;;
40453;SDS011;26160;51.858;4.398;2023-04-16T09:15:36;8.95;;;3.20;;
40453;SDS011;26160;51.858;4.398;2023-04-16T09:18:03;9.40;;;3.00;;
40453;SDS011;26160;51.858;4.398;2023-04-16T09:20:30;14.00;;;3.55;;
40453;SDS011;26160;51.858;4.398;2023-04-16T09:22:56;8.15;;;2.97;;
40453;SDS011;26160;51.858;4.398;2023-04-16T09:25:22;8.50;;;3.47;;
40453;SDS011;26160;51.858;4.398;2023-04-16T09:27:50;14.57;;;3.38;;
40453;SDS011;26160;51.858;4.398;2023-04-16T09:30:20;10.13;;;3.38;;
40453;SDS011;26160;51.858;4.398;2023-04-16T09:32:47;7.35;;;3.13;;
40453;SDS011;26160;51.858;4.398;2023-04-16T09:35:14;10.10;;;3.92;;
40453;SDS011;26160;51.858;4.398;2023-04-16T09:37:41;9.65;;;3.40;;
40453;SDS011;26160;51.858;4.398;2023-04-16T09:40:07;8.40;;;3.58;;
40453;SDS011;26160;51.858;4.398;2023-04-16T09:42:34;8.65;;;2.80;;
40453;SDS011;26160;51.858;4.398;2023-04-16T09:45:01;9.90;;;3.00;;
40453;SDS011;26160;51.858;4.398;2023-04-16T09:47:41;8.93;;;2.95;;
40453;SDS011;26160;51.858;4.398;2023-04-16T09:50:09;7.72;;;3.03;;
40453;SDS011;26160;51.858;4.398;2023-04-16T09:52:42;11.35;;;3.38;;
40453;SDS011;26160;51.858;4.398;2023-04-16T09:55:10;8.25;;;3.10;;
40453;SDS011;26160;51.858;4.398;2023-04-16T09:57:36;10.80;;;3.22;;
40453;SDS011;26160;51.858;4.398;2023-04-16T10:00:04;12.93;;;3.55;;
40453;SDS011;26160;51.858;4.398;2023-04-16T10:02:32;9.18;;;3.30;;
40453;SDS011;26160;51.858;4.398;2023-04-16T10:05:00;17.15;;;4.05;;
40453;SDS011;26160;51.858;4.398;2023-04-16T10:07:28;7.50;;;3.28;;
40453;SDS011;26160;51.858;4.398;2023-04-16T10:09:57;14.93;;;3.85;;
40453;SDS011;26160;51.858;4.398;2023-04-16T10:12:23;9.90;;;4.32;;
40453;SDS011;26160;51.858;4.398;2023-04-16T10:14:50;14.45;;;4.30;;
40453;SDS011;26160;51.858;4.398;2023-04-16T10:17:17;14.82;;;4.07;;
40453;SDS011;26160;51.858;4.398;2023-04-16T10:19:44;12.95;;;4.07;;
40453;SDS011;26160;51.858;4.398;2023-04-16T10:22:11;13.77;;;3.63;;
40453;SDS011;26160;51.858;4.398;2023-04-16T10:24:37;10.10;;;3.53;;
40453;SDS011;26160;51.858;4.398;2023-04-16T10:27:05;10.15;;;3.67;;
40453;SDS011;26160;51.858;4.398;2023-04-16T10:29:31;9.20;;;3.63;;
40453;SDS011;26160;51.858;4.398;2023-04-16T10:31:59;16.33;;;4.47;;
40453;SDS011;26160;51.858;4.398;2023-04-16T10:34:26;8.40;;;3.83;;
40453;SDS011;26160;51.858;4.398;2023-04-16T10:36:53;12.20;;;3.60;;
40453;SDS011;26160;51.858;4.398;2023-04-16T10:39:23;24.00;;;4.80;;
40453;SDS011;26160;51.858;4.398;2023-04-16T10:42:05;12.48;;;3.97;;
40453;SDS011;26160;51.858;4.398;2023-04-16T10:44:35;11.02;;;3.95;;
40453;SDS011;26160;51.858;4.398;2023-04-16T10:47:01;15.98;;;3.75;;
40453;SDS011;26160;51.858;4.398;2023-04-16T10:49:34;12.23;;;3.83;;
40453;SDS011;26160;51.858;4.398;2023-04-16T10:52:10;13.15;;;4.07;;
40453;SDS011;26160;51.858;4.398;2023-04-16T10:54:38;12.15;;;3.95;;
40453;SDS011;26160;51.858;4.398;2023-04-16T10:57:06;10.48;;;3.78;;
40453;SDS011;26160;51.858;4.398;2023-04-16T10:59:34;11.18;;;3.55;;
40453;SDS011;26160;51.858;4.398;2023-04-16T11:02:17;13.38;;;3.83;;
40453;SDS011;26160;51.858;4.398;2023-04-16T11:04:44;12.67;;;3.63;;
40453;SDS011;26160;51.858;4.398;2023-04-16T11:14:57;12.82;;;4.15;;
40453;SDS011;26160;51.858;4.398;2023-04-16T11:17:52;11.75;;;3.47;;
40453;SDS011;26160;51.858;4.398;2023-04-16T11:20:21;7.85;;;3.63;;
40453;SDS011;26160;51.858;4.398;2023-04-16T11:22:49;10.32;;;3.05;;
40453;SDS011;26160;51.858;4.398;2023-04-16T11:25:26;9.70;;;3.80;;
40453;SDS011;26160;51.858;4.398;2023-04-16T11:27:58;10.95;;;3.63;;
40453;SDS011;26160;51.858;4.398;2023-04-16T11:30:36;7.07;;;2.80;;
40453;SDS011;26160;51.858;4.398;2023-04-16T11:33:03;9.07;;;3.33;;
40453;SDS011;26160;51.858;4.398;2023-04-16T11:35:30;8.82;;;3.15;;
40453;SDS011;26160;51.858;4.398;2023-04-16T11:37:57;7.05;;;2.75;;
40453;SDS011;26160;51.858;4.398;2023-04-16T11:40:23;8.93;;;3.28;;
40453;SDS011;26160;51.858;4.398;2023-04-16T11:42:50;11.23;;;3.30;;
40453;SDS011;26160;51.858;4.398;2023-04-16T11:45:16;9.45;;;3.20;;
40453;SDS011;26160;51.858;4.398;2023-04-16T11:50:15;11.98;;;3.67;;
40453;SDS011;26160;51.858;4.398;2023-04-16T11:52:45;7.80;;;3.58;;
40453;SDS011;26160;51.858;4.398;2023-04-16T11:55:12;14.10;;;4.60;;
40453;SDS011;26160;51.858;4.398;2023-04-16T11:57:39;6.13;;;3.10;;
40453;SDS011;26160;51.858;4.398;2023-04-16T12:00:05;10.10;;;3.05;;
40453;SDS011;26160;51.858;4.398;2023-04-16T12:02:42;10.23;;;3.42;;
40453;SDS011;26160;51.858;4.398;2023-04-16T12:07:52;11.15;;;4.40;;
40453;SDS011;26160;51.858;4.398;2023-04-16T12:10:18;10.82;;;3.78;;
40453;SDS011;26160;51.858;4.398;2023-04-16T12:12:44;9.63;;;4.05;;
40453;SDS011;26160;51.858;4.398;2023-04-16T12:15:10;11.05;;;3.38;;
40453;SDS011;26160;51.858;4.398;2023-04-16T12:17:37;7.85;;;3.33;;
40453;SDS011;26160;51.858;4.398;2023-04-16T12:20:10;10.32;;;3.63;;
40453;SDS011;26160;51.858;4.398;2023-04-16T12:22:38;8.57;;;2.92;;
40453;SDS011;26160;51.858;4.398;2023-04-16T12:25:15;8.18;;;3.17;;
40453;SDS011;26160;51.858;4.398;2023-04-16T12:27:53;8.95;;;3.08;;
40453;SDS011;26160;51.858;4.398;2023-04-16T12:30:21;9.30;;;3.47;;
40453;SDS011;26160;51.858;4.398;2023-04-16T12:32:52;9.30;;;3.42;;
40453;SDS011;26160;51.858;4.398;2023-04-16T12:35:38;10.27;;;3.13;;
40453;SDS011;26160;51.858;4.398;2023-04-16T12:38:06;10.50;;;3.40;;
40453;SDS011;26160;51.858;4.398;2023-04-16T12:40:32;11.02;;;3.05;;
40453;SDS011;26160;51.858;4.398;2023-04-16T12:42:58;9.18;;;2.92;;
40453;SDS011;26160;51.858;4.398;2023-04-16T12:45:24;6.32;;;2.67;;
40453;SDS011;26160;51.858;4.398;2023-04-16T12:47:51;9.30;;;3.63;;
40453;SDS011;26160;51.858;4.398;2023-04-16T12:50:17;9.52;;;3.80;;
40453;SDS011;26160;51.858;4.398;2023-04-16T12:52:43;7.30;;;3.88;;
40453;SDS011;26160;51.858;4.398;2023-04-16T12:55:09;7.60;;;3.58;;
40453;SDS011;26160;51.858;4.398;2023-04-16T12:57:36;8.80;;;3.58;;
40453;SDS011;26160;51.858;4.398;2023-04-16T13:00:03;8.63;;;4.43;;
40453;SDS011;26160;51.858;4.398;2023-04-16T13:02:32;9.15;;;3.78;;
40453;SDS011;26160;51.858;4.398;2023-04-16T13:04:59;8.90;;;3.83;;
40453;SDS011;26160;51.858;4.398;2023-04-16T13:07:25;8.15;;;4.40;;
40453;SDS011;26160;51.858;4.398;2023-04-16T13:09:52;12.68;;;4.15;;
40453;SDS011;26160;51.858;4.398;2023-04-16T13:12:18;9.75;;;3.88;;
40453;SDS011;26160;51.858;4.398;2023-04-16T13:14:44;9.63;;;4.03;;
40453;SDS011;26160;51.858;4.398;2023-04-16T13:17:10;11.35;;;4.00;;
40453;SDS011;26160;51.858;4.398;2023-04-16T13:19:36;9.68;;;3.80;;
40453;SDS011;26160;51.858;4.398;2023-04-16T13:22:03;12.52;;;4.90;;
40453;SDS011;26160;51.858;4.398;2023-04-16T13:24:29;14.85;;;4.88;;
40453;SDS011;26160;51.858;4.398;2023-04-16T13:26:55;12.18;;;4.85;;
40453;SDS011;26160;51.858;4.398;2023-04-16T13:29:21;13.38;;;4.95;;
40453;SDS011;26160;51.858;4.398;2023-04-16T13:31:48;10.52;;;4.68;;
40453;SDS011;26160;51.858;4.398;2023-04-16T13:34:14;9.02;;;4.35;;
40453;SDS011;26160;51.858;4.398;2023-04-16T13:36:40;11.65;;;4.93;;
40453;SDS011;26160;51.858;4.398;2023-04-16T13:39:06;10.45;;;5.75;;
40453;SDS011;26160;51.858;4.398;2023-04-16T13:41:36;19.05;;;6.18;;
40453;SDS011;26160;51.858;4.398;2023-04-16T13:44:02;12.57;;;5.55;;
40453;SDS011;26160;51.858;4.398;2023-04-16T13:46:29;15.48;;;6.07;;
40453;SDS011;26160;51.858;4.398;2023-04-16T13:48:55;15.55;;;6.00;;
40453;SDS011;26160;51.858;4.398;2023-04-16T13:51:21;12.20;;;5.90;;
40453;SDS011;26160;51.858;4.398;2023-04-16T13:53:47;17.33;;;5.93;;
40453;SDS011;26160;51.858;4.398;2023-04-16T13:56:13;16.08;;;5.75;;
40453;SDS011;26160;51.858;4.398;2023-04-16T13:58:40;15.60;;;6.90;;
40453;SDS011;26160;51.858;4.398;2023-04-16T14:01:06;14.88;;;6.43;;
40453;SDS011;26160;51.858;4.398;2023-04-16T14:03:33;16.42;;;6.82;;
40453;SDS011;26160;51.858;4.398;2023-04-16T14:06:03;15.65;;;6.63;;
40453;SDS011;26160;51.858;4.398;2023-04-16T14:08:29;17.23;;;7.50;;
40453;SDS011;26160;51.858;4.398;2023-04-16T14:10:56;19.20;;;7.22;;
40453;SDS011;26160;51.858;4.398;2023-04-16T14:13:23;17.13;;;7.15;;
40453;SDS011;26160;51.858;4.398;2023-04-16T14:15:52;16.60;;;7.88;;
40453;SDS011;26160;51.858;4.398;2023-04-16T14:18:18;16.65;;;7.28;;
40453;SDS011;26160;51.858;4.398;2023-04-16T14:20:45;17.27;;;6.75;;
40453;SDS011;26160;51.858;4.398;2023-04-16T14:23:11;17.67;;;6.70;;
40453;SDS011;26160;51.858;4.398;2023-04-16T14:25:37;17.98;;;6.68;;
40453;SDS011;26160;51.858;4.398;2023-04-16T14:28:04;17.10;;;7.20;;
40453;SDS011;26160;51.858;4.398;2023-04-16T14:30:30;17.10;;;7.35;;
40453;SDS011;26160;51.858;4.398;2023-04-16T14:32:56;18.13;;;7.50;;
40453;SDS011;26160;51.858;4.398;2023-04-16T14:35:22;16.38;;;6.93;;
40453;SDS011;26160;51.858;4.398;2023-04-16T14:37:49;14.77;;;6.53;;
40453;SDS011;26160;51.858;4.398;2023-04-16T14:40:15;14.23;;;6.50;;
40453;SDS011;26160;51.858;4.398;2023-04-16T14:42:42;19.00;;;6.85;;
40453;SDS011;26160;51.858;4.398;2023-04-16T14:45:08;16.00;;;6.93;;
40453;SDS011;26160;51.858;4.398;2023-04-16T14:47:35;17.15;;;6.78;;
40453;SDS011;26160;51.858;4.398;2023-04-16T14:50:02;12.32;;;5.70;;
40453;SDS011;26160;51.858;4.398;2023-04-16T14:52:30;13.32;;;5.70;;
40453;SDS011;26160;51.858;4.398;2023-04-16T14:54:56;12.30;;;6.38;;
40453;SDS011;26160;51.858;4.398;2023-04-16T14:57:22;18.23;;;7.20;;
40453;SDS011;26160;51.858;4.398;2023-04-16T14:59:49;13.05;;;6.45;;
40453;SDS011;26160;51.858;4.398;2023-04-16T15:02:15;13.07;;;7.18;;